MMTM/TAM METAR and TAF weather

Enter ICAO airport designator
Station Type Date Time Source
MMTM METAR 2020/07/03 13:40 UTC NOAA

MMTM 031340Z 00000KT 4SM SCT012TCU 28/26 A2998 RMK 8/200 HZY BR SC


Station Type Date Time Source
MMTM Decoded METAR 2020/07/03 13:40 UTC NOAA

Tampico / Gen Fj Mina, Mexico (MMTM) 22-17N 097-52W
Jul 03, 2020 - 09:40 AM EDT / 2020.07.03 1340 UTC
Wind: Calm:0
Visibility: 4 mile(s):0
Sky conditions: partly cloudy
Weather: Towering cumulus clouds observed
Temperature: 82 F (28 C)
Dew Point: 78 F (26 C)
Relative Humidity: 88%
Pressure (altimeter): 29.98 in. Hg (1015 hPa)
ob: MMTM 031340Z 00000KT 4SM SCT012TCU 28/26 A2998 RMK 8/200 HZY BR SC
cycle: 13

Station Type Date Time Source
MMTM TAF 2020/07/03 06:21 UTC NOAA

TAF MMTM 030415Z 0306/0406 00000KT P6SM SCT020
TEMPO 0310/0314 4SM HZ BKN015
FM031700 12010KT P6SM SCT015
BECMG 0400/0401 10005KT

Example: see airport list